createdAt,value
2024-05-09T00:01:24.469Z,65.28
2024-05-09T00:02:24.528Z,65.05
2024-05-09T00:03:24.410Z,63.29
2024-05-09T00:04:24.422Z,63.36
2024-05-09T00:05:24.694Z,62.68
2024-05-09T00:06:24.397Z,64.08
2024-05-09T00:07:24.399Z,62.35
2024-05-09T00:08:24.463Z,62.09
2024-05-09T00:09:24.404Z,61.34
2024-05-09T00:10:29.331Z,62.76
2024-05-09T00:11:25.440Z,62.84
2024-05-09T00:12:24.514Z,62.78
2024-05-09T00:13:24.415Z,62.01
2024-05-09T00:14:24.414Z,61.58
2024-05-09T00:15:24.394Z,61.20
2024-05-09T00:16:24.398Z,60.65
2024-05-09T00:17:24.596Z,60.63
2024-05-09T00:18:24.604Z,60.28
2024-05-09T00:19:24.515Z,60.27
2024-05-09T00:20:28.751Z,60.00
2024-05-09T00:21:25.395Z,60.15
2024-05-09T00:22:24.433Z,60.38
2024-05-09T00:23:24.501Z,60.43
2024-05-09T00:24:24.451Z,60.63
2024-05-09T00:25:24.401Z,61.10
2024-05-09T00:26:24.507Z,59.32
2024-05-09T00:27:24.413Z,59.67
2024-05-09T00:28:24.414Z,60.97
2024-05-09T00:29:24.588Z,60.77
2024-05-09T00:30:32.761Z,57.55
2024-05-09T00:31:25.419Z,57.73
2024-05-09T00:32:24.591Z,58.23
2024-05-09T00:33:24.714Z,58.84
2024-05-09T00:34:24.496Z,59.41
2024-05-09T00:35:24.580Z,59.56
2024-05-09T00:36:24.420Z,58.40
2024-05-09T00:37:24.423Z,58.13
2024-05-09T00:38:24.473Z,58.70
2024-05-09T00:39:24.422Z,58.90
2024-05-09T00:40:31.212Z,58.92
2024-05-09T00:41:25.460Z,59.05
2024-05-09T00:42:24.462Z,59.19
2024-05-09T00:43:24.428Z,59.14
2024-05-09T00:44:24.602Z,58.37
2024-05-09T00:45:24.438Z,58.77
2024-05-09T00:46:24.435Z,59.45
2024-05-09T00:47:24.836Z,57.60
2024-05-09T00:48:24.541Z,58.46
2024-05-09T00:49:24.672Z,57.82
2024-05-09T00:50:30.000Z,56.12
2024-05-09T00:51:25.513Z,56.33
2024-05-09T00:52:24.451Z,56.84
2024-05-09T00:53:24.492Z,57.00
2024-05-09T00:54:24.455Z,56.87
2024-05-09T00:55:24.449Z,57.23
2024-05-09T00:56:24.575Z,56.17
2024-05-09T00:57:24.480Z,59.51
2024-05-09T00:58:24.447Z,58.94
2024-05-09T00:59:24.582Z,56.62
2024-05-09T01:00:31.304Z,57.21
2024-05-09T01:01:25.506Z,57.35
2024-05-09T01:02:24.492Z,57.72
2024-05-09T01:03:24.795Z,57.25
2024-05-09T01:04:24.502Z,57.32
2024-05-09T01:05:24.474Z,58.08
2024-05-09T01:06:24.501Z,55.79
2024-05-09T01:07:24.537Z,57.58
2024-05-09T01:08:24.563Z,55.88
2024-05-09T01:09:24.520Z,57.37
2024-05-09T01:10:32.198Z,56.28
2024-05-09T01:11:25.615Z,56.49
2024-05-09T01:12:24.605Z,56.52
2024-05-09T01:13:24.520Z,57.05
2024-05-09T01:14:24.678Z,57.28
2024-05-09T01:15:24.522Z,56.90
2024-05-09T01:16:24.535Z,56.84
2024-05-09T01:17:24.582Z,55.51
2024-05-09T01:18:24.642Z,55.70
2024-05-09T01:19:24.629Z,53.02
2024-05-09T01:20:32.150Z,53.91
2024-05-09T01:21:25.546Z,54.06
2024-05-09T01:22:24.552Z,54.51
2024-05-09T01:23:24.583Z,54.89
2024-05-09T01:24:24.524Z,54.46
2024-05-09T01:25:24.527Z,55.66
2024-05-09T01:26:24.572Z,56.10
2024-05-09T01:27:24.570Z,55.25
2024-05-09T01:28:24.523Z,53.45
2024-05-09T01:29:24.612Z,54.48
2024-05-09T01:30:31.747Z,54.92
2024-05-09T01:31:25.555Z,54.99
2024-05-09T01:32:24.698Z,54.95
2024-05-09T01:33:24.660Z,54.99
2024-05-09T01:34:24.533Z,55.17
2024-05-09T01:35:24.684Z,53.47
2024-05-09T01:36:24.573Z,53.48
2024-05-09T01:37:24.576Z,52.93
2024-05-09T01:38:24.612Z,53.33
2024-05-09T01:39:24.569Z,53.09
2024-05-09T01:41:24.577Z,55.33
2024-05-09T01:42:24.673Z,54.38
2024-05-09T01:43:24.720Z,54.55
2024-05-09T01:44:24.880Z,54.52
2024-05-09T01:45:24.871Z,53.95
2024-05-09T01:46:24.960Z,53.37
2024-05-09T01:47:25.225Z,52.81
2024-05-09T01:48:25.252Z,52.96
2024-05-09T01:49:25.394Z,54.26
2024-05-09T01:50:37.181Z,55.20
2024-05-09T01:51:26.268Z,55.28
2024-05-09T01:52:25.290Z,55.35
2024-05-09T01:53:25.290Z,53.72
2024-05-09T01:54:25.274Z,54.25
2024-05-09T01:55:26.167Z,52.15
2024-05-09T01:56:25.347Z,52.98
2024-05-09T01:57:25.287Z,54.01
2024-05-09T01:58:25.293Z,53.13
2024-05-09T01:59:25.370Z,51.97
2024-05-09T02:00:34.167Z,52.50
2024-05-09T02:01:26.340Z,52.67
2024-05-09T02:02:25.374Z,52.68
2024-05-09T02:03:25.446Z,53.23
2024-05-09T02:04:25.406Z,51.95
2024-05-09T02:05:25.485Z,51.72
2024-05-09T02:06:25.322Z,52.42
2024-05-09T02:07:25.302Z,52.86
2024-05-09T02:08:25.341Z,53.04
2024-05-09T02:09:25.304Z,51.86
2024-05-09T02:10:31.943Z,54.12
2024-05-09T02:11:26.365Z,54.21
2024-05-09T02:12:25.446Z,54.65
2024-05-09T02:13:25.316Z,53.03
2024-05-09T02:14:25.386Z,53.55
2024-05-09T02:15:25.307Z,53.41
2024-05-09T02:16:25.316Z,52.82
2024-05-09T02:17:25.454Z,52.78
2024-05-09T02:18:25.508Z,52.73
2024-05-09T02:19:25.338Z,52.35
2024-05-09T02:20:33.466Z,50.83
2024-05-09T02:21:26.315Z,51.00
2024-05-09T02:22:25.360Z,51.38
2024-05-09T02:23:25.421Z,51.30
2024-05-09T02:24:25.312Z,50.77
2024-05-09T02:25:25.310Z,51.04
2024-05-09T02:26:25.335Z,52.25
2024-05-09T02:27:25.324Z,50.00
2024-05-09T02:28:25.335Z,50.41
2024-05-09T02:29:25.448Z,51.88
2024-05-09T02:30:30.922Z,50.15
2024-05-09T02:31:26.375Z,50.40
2024-05-09T02:32:25.541Z,50.75
2024-05-09T02:33:25.565Z,51.48
2024-05-09T02:34:25.451Z,52.31
2024-05-09T02:35:25.478Z,51.27
2024-05-09T02:36:25.348Z,51.46
2024-05-09T02:37:25.356Z,51.14
2024-05-09T02:38:25.459Z,51.07
2024-05-09T02:39:25.360Z,51.21
2024-05-09T02:40:33.544Z,52.29
2024-05-09T02:41:26.443Z,52.45
2024-05-09T02:42:25.388Z,51.45
2024-05-09T02:43:25.365Z,52.85
2024-05-09T02:44:25.484Z,52.08
2024-05-09T02:45:25.380Z,51.60
2024-05-09T02:46:25.359Z,51.27
2024-05-09T02:47:25.496Z,52.02
2024-05-09T02:48:25.545Z,50.87
2024-05-09T02:49:25.446Z,51.61
2024-05-09T02:50:33.692Z,53.10
2024-05-09T02:51:26.409Z,53.18
2024-05-09T02:52:25.396Z,53.20
2024-05-09T02:53:25.404Z,53.59
2024-05-09T02:54:25.373Z,52.27
2024-05-09T02:55:25.374Z,51.41
2024-05-09T02:56:25.450Z,51.61
2024-05-09T02:57:25.386Z,51.90
2024-05-09T02:58:25.416Z,50.00
2024-05-09T02:59:25.442Z,52.41
2024-05-09T03:00:29.972Z,51.39
2024-05-09T03:01:26.396Z,51.60
2024-05-09T03:02:25.490Z,51.82
2024-05-09T03:03:25.798Z,52.22
2024-05-09T03:04:25.432Z,52.82
2024-05-09T03:05:25.449Z,52.47
2024-05-09T03:06:25.423Z,53.66
2024-05-09T03:07:25.445Z,51.76
2024-05-09T03:08:25.556Z,50.79
2024-05-09T03:09:25.416Z,52.12
2024-05-09T03:10:28.727Z,52.90
2024-05-09T03:11:26.593Z,52.99
2024-05-09T03:12:25.446Z,52.96
2024-05-09T03:13:25.430Z,51.16
2024-05-09T03:14:25.510Z,51.49
2024-05-09T03:15:25.447Z,51.92
2024-05-09T03:16:25.459Z,52.46
2024-05-09T03:17:25.617Z,53.21
2024-05-09T03:18:25.577Z,52.21
2024-05-09T03:19:25.534Z,51.49
2024-05-09T03:20:32.504Z,52.75
2024-05-09T03:21:26.469Z,52.92
2024-05-09T03:22:25.489Z,52.70
2024-05-09T03:23:25.496Z,52.85
2024-05-09T03:24:25.474Z,50.94
2024-05-09T03:25:25.477Z,52.78
2024-05-09T03:26:25.502Z,53.32
2024-05-09T03:27:25.471Z,51.88
2024-05-09T03:28:25.470Z,51.51
2024-05-09T03:29:25.629Z,50.89
2024-05-09T03:30:34.615Z,52.05
2024-05-09T03:31:26.541Z,52.19
2024-05-09T03:32:25.558Z,52.34
2024-05-09T03:33:25.826Z,52.81
2024-05-09T03:34:25.543Z,53.67
2024-05-09T03:35:25.626Z,53.45
2024-05-09T03:36:25.519Z,53.10
2024-05-09T03:37:25.532Z,52.44
2024-05-09T03:38:25.559Z,52.30
2024-05-09T03:39:25.512Z,52.65
2024-05-09T03:40:28.973Z,53.74
2024-05-09T03:41:26.634Z,53.81
2024-05-09T03:42:25.529Z,53.92
2024-05-09T03:43:25.531Z,52.42
2024-05-09T03:44:25.655Z,53.48
2024-05-09T03:45:25.521Z,50.94
2024-05-09T03:46:25.535Z,53.43
2024-05-09T03:47:25.679Z,51.84
2024-05-09T03:48:25.718Z,50.32
2024-05-09T03:49:25.688Z,52.50
2024-05-09T03:50:30.389Z,50.71
2024-05-09T03:51:26.552Z,50.81
2024-05-09T03:52:25.563Z,51.20
2024-05-09T03:53:25.583Z,50.55
2024-05-09T03:54:25.544Z,50.95
2024-05-09T03:55:25.554Z,49.50
2024-05-09T03:56:25.672Z,50.28
2024-05-09T03:57:25.587Z,51.88
2024-05-09T03:58:25.570Z,53.58
2024-05-09T03:59:25.671Z,53.36
2024-05-09T04:00:31.767Z,50.61
2024-05-09T04:01:26.651Z,50.79
2024-05-09T04:02:25.675Z,51.30
2024-05-09T04:03:25.818Z,52.10
2024-05-09T04:04:25.620Z,51.83
2024-05-09T04:05:25.618Z,52.87
2024-05-09T04:06:25.656Z,53.35
2024-05-09T04:07:25.631Z,53.36
2024-05-09T04:08:25.660Z,50.30
2024-05-09T04:09:25.651Z,51.48
2024-05-09T04:10:31.271Z,51.47
2024-05-09T04:11:26.812Z,51.65
2024-05-09T04:12:25.763Z,51.96
2024-05-09T04:13:25.642Z,51.94
2024-05-09T04:14:25.667Z,53.46
2024-05-09T04:15:25.648Z,53.25
2024-05-09T04:16:25.714Z,54.24
2024-05-09T04:17:25.907Z,51.67
2024-05-09T04:18:25.783Z,52.32
2024-05-09T04:19:25.930Z,53.65
2024-05-09T04:20:35.996Z,53.45
2024-05-09T04:21:26.722Z,53.57
2024-05-09T04:22:25.759Z,53.77
2024-05-09T04:23:25.832Z,52.82
2024-05-09T04:24:25.710Z,52.10
2024-05-09T04:25:25.717Z,52.87
2024-05-09T04:26:25.830Z,51.51
2024-05-09T04:27:25.747Z,53.30
2024-05-09T04:28:25.771Z,53.24
2024-05-09T04:29:25.805Z,52.04
2024-05-09T04:30:34.662Z,51.62
2024-05-09T04:31:26.745Z,51.78
2024-05-09T04:32:25.926Z,51.98
2024-05-09T04:33:26.079Z,51.68
2024-05-09T04:34:25.829Z,52.29
2024-05-09T04:35:25.936Z,53.46
2024-05-09T04:36:25.762Z,51.69
2024-05-09T04:37:25.821Z,51.67
2024-05-09T04:38:25.787Z,50.38
2024-05-09T04:39:25.770Z,52.85
2024-05-09T04:40:33.008Z,52.54
2024-05-09T04:41:26.897Z,52.67
2024-05-09T04:42:25.797Z,52.96
2024-05-09T04:43:25.773Z,52.87
2024-05-09T04:44:25.841Z,52.14
2024-05-09T04:45:25.794Z,52.96
2024-05-09T04:46:25.790Z,51.31
2024-05-09T04:47:25.998Z,53.32
2024-05-09T04:48:25.896Z,51.89
2024-05-09T04:49:25.874Z,52.89
2024-05-09T04:50:37.367Z,50.00
2024-05-09T04:51:34.255Z,50.00
2024-05-09T04:52:33.262Z,50.00
2024-05-09T04:53:33.442Z,50.00
2024-05-09T04:54:36.425Z,50.00
2024-05-09T04:55:33.342Z,50.00
2024-05-09T04:56:33.369Z,50.00
2024-05-09T04:57:33.270Z,50.00
2024-05-09T04:58:33.252Z,50.00
2024-05-09T04:59:33.308Z,50.00
2024-05-09T05:01:33.350Z,53.82
2024-05-09T05:02:33.389Z,52.95
2024-05-09T05:03:33.338Z,52.68
2024-05-09T05:04:33.301Z,51.51
2024-05-09T05:05:33.290Z,53.39
2024-05-09T05:06:33.272Z,53.89
2024-05-09T05:07:33.280Z,50.12
2024-05-09T05:08:33.429Z,52.28
2024-05-09T05:09:33.296Z,50.00
2024-05-09T05:10:36.343Z,51.88
2024-05-09T05:11:33.374Z,52.04
2024-05-09T05:12:33.370Z,52.25
2024-05-09T05:13:33.299Z,52.53
2024-05-09T05:14:33.338Z,53.35
2024-05-09T05:15:33.291Z,53.30
2024-05-09T05:16:33.309Z,51.52
2024-05-09T05:17:33.495Z,52.21
2024-05-09T05:18:33.423Z,51.38
2024-05-09T05:19:33.399Z,52.45
2024-05-09T05:20:34.272Z,52.31
2024-05-09T05:21:33.380Z,51.69
2024-05-09T05:22:33.341Z,52.35
2024-05-09T05:23:33.462Z,52.39
2024-05-09T05:24:33.352Z,51.78
2024-05-09T05:25:33.332Z,52.70
2024-05-09T05:26:33.458Z,51.69
2024-05-09T05:27:33.368Z,52.62
2024-05-09T05:28:33.325Z,52.65
2024-05-09T05:29:33.389Z,52.47
2024-05-09T05:30:34.948Z,52.97
2024-05-09T05:31:33.374Z,52.57
2024-05-09T05:32:33.444Z,51.34
2024-05-09T05:33:33.451Z,51.79
2024-05-09T05:34:33.383Z,53.48
2024-05-09T05:35:33.526Z,51.96
2024-05-09T05:36:33.341Z,52.03
2024-05-09T05:37:33.351Z,53.75
2024-05-09T05:38:33.407Z,52.15
2024-05-09T05:39:33.343Z,53.05
2024-05-09T05:40:36.922Z,54.29
2024-05-09T05:41:34.466Z,54.42
2024-05-09T05:42:33.345Z,54.43
2024-05-09T05:43:38.375Z,54.30
2024-05-09T05:44:33.440Z,54.47
2024-05-09T05:45:33.380Z,54.82
2024-05-09T05:46:33.345Z,54.85
2024-05-09T05:47:33.439Z,53.09
2024-05-09T05:48:33.440Z,54.30
2024-05-09T05:49:33.445Z,51.72
2024-05-09T05:50:36.532Z,54.12
2024-05-09T05:51:33.373Z,54.15
2024-05-09T05:52:33.375Z,53.97
2024-05-09T05:53:33.664Z,54.23
2024-05-09T05:54:33.391Z,51.55
2024-05-09T05:55:33.380Z,51.64
2024-05-09T05:56:33.447Z,52.61
2024-05-09T05:57:33.391Z,50.98
2024-05-09T05:58:33.379Z,51.29
2024-05-09T05:59:33.472Z,52.66
2024-05-09T06:00:38.022Z,51.42
2024-05-09T06:01:34.443Z,51.66
2024-05-09T06:02:33.433Z,51.80
2024-05-09T06:03:33.509Z,50.69
2024-05-09T06:04:33.440Z,52.00
2024-05-09T06:05:33.593Z,52.35
2024-05-09T06:06:33.369Z,53.32
2024-05-09T06:07:33.422Z,52.64
2024-05-09T06:08:33.627Z,51.27
2024-05-09T06:09:33.454Z,52.05
2024-05-09T06:10:38.616Z,50.63
2024-05-09T06:11:34.514Z,50.84
2024-05-09T06:12:33.415Z,50.99
2024-05-09T06:13:33.426Z,51.11
2024-05-09T06:14:33.480Z,51.64
2024-05-09T06:15:33.474Z,53.61
2024-05-09T06:16:33.430Z,51.54
2024-05-09T06:17:33.619Z,53.01
2024-05-09T06:18:33.695Z,50.00
2024-05-09T06:19:33.628Z,51.63
2024-05-09T06:20:36.382Z,51.18
2024-05-09T06:21:33.471Z,51.31
2024-05-09T06:22:33.473Z,51.55
2024-05-09T06:23:33.616Z,51.59
2024-05-09T06:24:33.461Z,52.34
2024-05-09T06:25:33.519Z,51.36
2024-05-09T06:26:33.547Z,52.85
2024-05-09T06:27:38.487Z,53.54
2024-05-09T06:28:33.481Z,53.66
2024-05-09T06:29:33.560Z,54.04
2024-05-09T06:30:38.440Z,53.49
2024-05-09T06:31:34.492Z,53.67
2024-05-09T06:32:33.653Z,53.66
2024-05-09T06:33:34.036Z,53.67
2024-05-09T06:34:33.546Z,51.59
2024-05-09T06:35:33.919Z,52.82
2024-05-09T06:36:33.487Z,51.58
2024-05-09T06:37:33.511Z,52.14
2024-05-09T06:38:33.627Z,51.93
2024-05-09T06:39:33.489Z,52.65
2024-05-09T06:40:37.489Z,52.95
2024-05-09T06:41:34.593Z,53.05
2024-05-09T06:42:38.503Z,52.98
2024-05-09T06:43:33.510Z,53.14
2024-05-09T06:44:33.611Z,53.22
2024-05-09T06:45:33.538Z,53.72
2024-05-09T06:46:33.525Z,53.25
2024-05-09T06:47:33.656Z,54.32
2024-05-09T06:48:33.717Z,50.52
2024-05-09T06:49:33.680Z,51.63
2024-05-09T06:50:37.595Z,52.52
2024-05-09T06:51:34.531Z,52.66
2024-05-09T06:52:33.514Z,52.64
2024-05-09T06:53:33.598Z,51.98
2024-05-09T06:54:33.516Z,51.15
2024-05-09T06:55:33.559Z,51.94
2024-05-09T06:56:33.587Z,50.76
2024-05-09T06:57:41.484Z,51.65
2024-05-09T06:58:33.584Z,52.01
2024-05-09T06:59:33.696Z,52.66
2024-05-09T07:00:38.661Z,52.76
2024-05-09T07:01:34.599Z,52.06
2024-05-09T07:02:33.697Z,52.74
2024-05-09T07:03:33.671Z,52.67
2024-05-09T07:04:33.655Z,53.21
2024-05-09T07:05:33.743Z,52.52
2024-05-09T07:06:33.610Z,52.39
2024-05-09T07:07:33.640Z,50.67
2024-05-09T07:08:33.723Z,54.49
2024-05-09T07:09:33.626Z,52.75
2024-05-09T07:10:35.514Z,53.40
2024-05-09T07:11:34.622Z,53.54
2024-05-09T07:12:33.716Z,56.44
2024-05-09T07:13:33.621Z,52.98
2024-05-09T07:14:34.518Z,51.83
2024-05-09T07:15:33.613Z,54.75
2024-05-09T07:16:33.617Z,52.25
2024-05-09T07:17:33.798Z,50.90
2024-05-09T07:18:33.801Z,53.86
2024-05-09T07:19:33.715Z,51.58
2024-05-09T07:20:35.022Z,51.10
2024-05-09T07:21:33.650Z,52.53
2024-05-09T07:22:33.641Z,52.19
2024-05-09T07:23:33.765Z,52.86
2024-05-09T07:24:33.636Z,53.44
2024-05-09T07:25:33.634Z,51.67
2024-05-09T07:26:33.699Z,52.43
2024-05-09T07:27:33.621Z,51.73
2024-05-09T07:28:33.668Z,51.31
2024-05-09T07:29:36.137Z,52.05
2024-05-09T07:30:34.782Z,52.11
2024-05-09T07:31:33.645Z,52.64
2024-05-09T07:32:33.900Z,52.61
2024-05-09T07:33:33.725Z,53.35
2024-05-09T07:34:33.802Z,53.63
2024-05-09T07:35:33.782Z,53.46
2024-05-09T07:36:33.649Z,50.96
2024-05-09T07:37:33.655Z,51.38
2024-05-09T07:38:33.698Z,52.54
2024-05-09T07:39:33.667Z,51.20
2024-05-09T07:40:36.528Z,51.96
2024-05-09T07:41:33.769Z,54.63
2024-05-09T07:42:33.655Z,52.43
2024-05-09T07:43:33.695Z,51.26
2024-05-09T07:44:33.724Z,52.42
2024-05-09T07:50:34.304Z,53.73
2024-05-09T07:52:23.243Z,53.87
2024-05-09T07:53:33.207Z,53.94
2024-05-09T07:53:42.076Z,54.07
2024-05-09T07:54:34.767Z,54.18
2024-05-09T07:55:33.882Z,55.70
2024-05-09T07:56:33.933Z,55.93
2024-05-09T07:57:33.731Z,56.15
2024-05-09T07:58:33.816Z,57.71
2024-05-09T07:59:37.110Z,54.02
2024-05-09T08:00:33.829Z,54.22
2024-05-09T08:01:33.947Z,54.39
2024-05-09T08:02:33.932Z,52.41
2024-05-09T08:03:34.136Z,50.83
2024-05-09T08:04:33.889Z,52.26
2024-05-09T08:05:33.940Z,53.81
2024-05-09T08:06:33.795Z,51.39
2024-05-09T08:07:33.750Z,53.18
2024-05-09T08:08:33.790Z,53.31
2024-05-09T08:09:35.093Z,50.40
2024-05-09T08:10:33.804Z,51.74
2024-05-09T08:11:33.795Z,52.53
2024-05-09T08:12:33.821Z,51.69
2024-05-09T08:13:33.786Z,50.74
2024-05-09T08:14:33.833Z,50.11
2024-05-09T08:15:33.947Z,51.64
2024-05-09T08:16:33.939Z,51.01
2024-05-09T08:17:34.038Z,52.32
2024-05-09T08:18:34.093Z,51.72
2024-05-09T08:19:33.988Z,51.02
2024-05-09T08:20:35.435Z,52.33
2024-05-09T08:21:34.062Z,50.12
2024-05-09T08:22:34.088Z,51.39
2024-05-09T08:23:34.098Z,53.05
2024-05-09T08:24:34.139Z,53.93
2024-05-09T08:25:34.179Z,51.88
2024-05-09T08:26:34.178Z,53.75
2024-05-09T08:27:34.304Z,52.98
2024-05-09T08:28:34.335Z,51.58
2024-05-09T08:29:34.343Z,50.55
2024-05-09T08:30:37.247Z,50.16
2024-05-09T08:31:34.502Z,55.30
2024-05-09T08:32:34.534Z,52.37
2024-05-09T08:33:34.547Z,51.88
2024-05-09T08:34:34.510Z,50.00
2024-05-09T08:35:34.778Z,54.02
2024-05-09T08:36:34.508Z,51.52
2024-05-09T08:37:37.945Z,51.00
2024-05-09T08:38:35.437Z,51.29
2024-05-09T08:39:34.532Z,52.06
2024-05-09T08:40:36.436Z,52.99
2024-05-09T08:41:34.487Z,55.18
2024-05-09T08:42:34.530Z,53.01
2024-05-09T08:43:34.940Z,54.39
2024-05-09T08:44:34.500Z,52.83
2024-05-09T08:45:34.577Z,52.80
2024-05-09T08:46:34.565Z,53.25
2024-05-09T08:47:34.632Z,50.06
2024-05-09T08:48:34.778Z,50.50
2024-05-09T08:49:35.140Z,52.97
2024-05-09T08:50:38.887Z,50.96
2024-05-09T08:51:35.569Z,51.18
2024-05-09T08:52:34.561Z,51.29
2024-05-09T08:53:34.567Z,51.61
2024-05-09T08:54:34.622Z,50.48
2024-05-09T08:55:35.455Z,51.44
2024-05-09T08:56:34.536Z,51.75
2024-05-09T08:57:34.580Z,51.87
2024-05-09T08:58:34.540Z,51.89
2024-05-09T08:59:34.554Z,53.75
2024-05-09T09:00:37.291Z,51.38
2024-05-09T09:01:35.437Z,53.98
2024-05-09T09:02:34.706Z,54.63
2024-05-09T09:03:34.734Z,52.83
2024-05-09T09:04:34.656Z,50.75
2024-05-09T09:05:34.766Z,50.72
2024-05-09T09:06:34.611Z,52.40
2024-05-09T09:07:34.600Z,51.10
2024-05-09T09:08:34.558Z,52.34
2024-05-09T09:09:35.512Z,52.82
2024-05-09T09:10:34.797Z,51.83
2024-05-09T09:11:34.589Z,52.92
2024-05-09T09:12:34.614Z,51.87
2024-05-09T09:13:34.557Z,50.76
2024-05-09T09:14:34.600Z,50.00
2024-05-09T09:15:34.596Z,52.25
2024-05-09T09:16:34.563Z,52.52
2024-05-09T09:17:34.657Z,52.54
2024-05-09T09:18:34.905Z,51.57
2024-05-09T09:19:34.767Z,50.77
2024-05-09T09:20:36.850Z,52.59
2024-05-09T09:21:35.018Z,51.01
2024-05-09T09:22:35.021Z,50.95
2024-05-09T09:23:35.138Z,52.45
2024-05-09T09:24:42.516Z,50.00
2024-05-09T09:25:42.474Z,50.00
2024-05-09T09:26:42.452Z,50.00
2024-05-09T09:27:42.504Z,50.00
2024-05-09T09:28:42.432Z,50.00
2024-05-09T09:29:42.432Z,50.41
2024-05-09T09:30:42.507Z,51.71
2024-05-09T09:31:42.456Z,52.12
2024-05-09T09:32:42.520Z,50.00
2024-05-09T09:33:42.618Z,50.79
2024-05-09T09:34:42.469Z,53.92
2024-05-09T09:35:42.459Z,50.00
2024-05-09T09:36:42.559Z,51.19
2024-05-09T09:37:42.445Z,51.92
2024-05-09T09:38:42.455Z,51.71
2024-05-09T09:39:42.495Z,51.16
2024-05-09T09:40:46.510Z,50.00
2024-05-09T09:41:43.493Z,50.24
2024-05-09T09:42:42.511Z,50.66
2024-05-09T09:43:42.510Z,51.01
2024-05-09T09:44:47.851Z,51.26
2024-05-09T09:45:43.753Z,50.29
2024-05-09T09:46:42.457Z,50.78
2024-05-09T09:47:42.614Z,51.13
2024-05-09T09:48:42.518Z,50.93
2024-05-09T09:49:42.524Z,48.88
2024-05-09T09:50:42.512Z,51.31
2024-05-09T09:51:42.521Z,50.37
2024-05-09T09:52:42.492Z,51.79
2024-05-09T09:53:42.526Z,51.33
2024-05-09T09:54:42.584Z,51.67
2024-05-09T09:55:42.492Z,52.42
2024-05-09T09:56:42.509Z,50.70
2024-05-09T09:57:42.584Z,53.59
2024-05-09T09:58:42.580Z,53.07
2024-05-09T09:59:42.614Z,52.95
2024-05-09T10:00:42.801Z,50.87
2024-05-09T10:01:42.753Z,50.71
2024-05-09T10:02:42.784Z,50.76
2024-05-09T10:03:42.974Z,54.11
2024-05-09T10:04:43.011Z,53.20
2024-05-09T10:05:45.277Z,52.03
2024-05-09T10:06:43.038Z,52.14
2024-05-09T10:07:43.022Z,52.16
2024-05-09T10:08:43.012Z,52.24
2024-05-09T10:09:43.049Z,52.05
2024-05-09T10:10:43.146Z,49.54
2024-05-09T10:11:49.050Z,50.00
2024-05-09T10:12:44.080Z,50.20
2024-05-09T10:13:43.027Z,50.48
2024-05-09T10:14:43.005Z,51.51
2024-05-09T10:15:43.226Z,50.71
2024-05-09T10:16:43.019Z,51.25
2024-05-09T10:17:43.115Z,51.50
2024-05-09T10:18:43.518Z,52.45
2024-05-09T10:19:43.103Z,54.01
2024-05-09T10:20:43.060Z,52.27
2024-05-09T10:21:43.107Z,51.96
2024-05-09T10:22:43.069Z,53.69
2024-05-09T10:23:43.069Z,52.27
2024-05-09T10:24:43.096Z,50.76
2024-05-09T10:25:43.115Z,54.30
2024-05-09T10:26:43.094Z,53.81
2024-05-09T10:27:43.156Z,52.84
2024-05-09T10:28:43.220Z,54.91
2024-05-09T10:29:43.323Z,52.62
2024-05-09T10:30:43.862Z,52.80
2024-05-09T10:31:43.738Z,53.58
2024-05-09T10:32:43.724Z,54.85
2024-05-09T10:33:43.840Z,53.44
2024-05-09T10:34:43.832Z,53.81
2024-05-09T10:35:43.867Z,52.31
2024-05-09T10:36:43.962Z,54.05
2024-05-09T10:37:44.002Z,54.62
2024-05-09T10:38:44.102Z,53.60
2024-05-09T10:39:44.248Z,52.69
2024-05-09T10:40:44.364Z,52.65
2024-05-09T10:41:44.365Z,51.82
2024-05-09T10:42:44.499Z,54.03
2024-05-09T10:43:44.545Z,53.00
2024-05-09T10:44:44.609Z,53.83
2024-05-09T10:45:44.740Z,53.34
2024-05-09T10:46:44.812Z,52.06
2024-05-09T10:47:45.040Z,53.53
2024-05-09T10:48:45.206Z,52.85
2024-05-09T10:49:45.191Z,51.97
2024-05-09T10:50:45.134Z,53.45
2024-05-09T10:51:45.315Z,52.88
2024-05-09T10:52:45.354Z,53.20
2024-05-09T10:53:45.439Z,52.33
2024-05-09T10:54:45.612Z,53.18
2024-05-09T10:55:45.640Z,53.20
2024-05-09T10:56:45.749Z,52.92
2024-05-09T10:57:45.827Z,50.65
2024-05-09T10:58:45.870Z,53.54
2024-05-09T10:59:45.967Z,54.62
2024-05-09T11:00:46.225Z,52.67
2024-05-09T11:01:46.180Z,51.42
2024-05-09T11:02:46.297Z,53.18
2024-05-09T11:03:46.658Z,52.84
2024-05-09T11:04:46.556Z,53.20
2024-05-09T11:05:46.584Z,52.55
2024-05-09T11:06:46.619Z,52.11
2024-05-09T11:07:46.687Z,50.50
2024-05-09T11:08:46.817Z,52.10
2024-05-09T11:09:46.926Z,53.04
2024-05-09T11:10:47.096Z,53.38
2024-05-09T11:11:47.145Z,55.03
2024-05-09T11:12:47.198Z,53.01
2024-05-09T11:13:47.245Z,54.76
2024-05-09T11:14:47.364Z,52.70
2024-05-09T11:15:47.482Z,54.11
2024-05-09T11:16:47.529Z,52.22
2024-05-09T11:17:47.792Z,54.16
2024-05-09T11:18:47.937Z,53.79
2024-05-09T11:19:47.900Z,55.68
2024-05-09T11:20:47.934Z,51.90
2024-05-09T11:21:48.050Z,51.96
2024-05-09T11:22:48.091Z,52.46
2024-05-09T11:23:48.199Z,53.72
2024-05-09T11:24:48.367Z,55.02
2024-05-09T11:25:48.352Z,52.36
2024-05-09T11:26:48.455Z,53.26
2024-05-09T11:27:48.558Z,53.61
2024-05-09T11:28:48.636Z,51.94
2024-05-09T11:29:48.732Z,53.07
2024-05-09T11:30:48.811Z,52.96
2024-05-09T11:31:48.996Z,50.73
2024-05-09T11:32:49.046Z,55.30
2024-05-09T11:33:49.161Z,54.66
2024-05-09T11:34:49.188Z,54.81
2024-05-09T11:35:49.235Z,55.12
2024-05-09T11:36:49.416Z,53.63
2024-05-09T11:37:49.412Z,54.88
2024-05-09T11:38:49.540Z,53.91
2024-05-09T11:39:49.677Z,55.16
2024-05-09T11:40:49.779Z,54.63
2024-05-09T11:41:49.783Z,51.92
2024-05-09T11:42:52.473Z,55.75
2024-05-09T11:43:49.865Z,56.61
2024-05-09T11:44:49.867Z,53.58
2024-05-09T11:45:49.928Z,52.29
2024-05-09T11:46:49.880Z,57.58
2024-05-09T11:47:49.997Z,57.17
2024-05-09T11:48:50.013Z,53.90
2024-05-09T11:49:49.993Z,54.58
2024-05-09T11:50:49.909Z,53.76
2024-05-09T11:51:49.973Z,53.58
2024-05-09T11:52:49.924Z,55.94
2024-05-09T11:53:49.931Z,55.03
2024-05-09T11:54:49.956Z,54.98
2024-05-09T11:55:50.106Z,53.82
2024-05-09T11:56:49.883Z,55.01
2024-05-09T11:57:49.960Z,54.58
2024-05-09T11:58:49.921Z,52.56
2024-05-09T11:59:49.918Z,53.52
2024-05-09T12:00:50.242Z,56.38
2024-05-09T12:01:49.941Z,54.85
2024-05-09T12:02:50.019Z,54.44
2024-05-09T12:03:50.099Z,54.00
2024-05-09T12:04:50.021Z,55.01
2024-05-09T12:05:50.026Z,54.31
2024-05-09T12:06:49.981Z,55.77
2024-05-09T12:07:49.933Z,52.92
2024-05-09T12:08:49.936Z,55.11
2024-05-09T12:09:50.016Z,56.04
2024-05-09T12:10:50.129Z,56.22
2024-05-09T12:11:50.026Z,55.32
2024-05-09T12:12:49.933Z,54.78
2024-05-09T12:13:49.893Z,54.50
2024-05-09T12:14:49.916Z,53.98
2024-05-09T12:15:49.956Z,54.81
2024-05-09T12:16:49.980Z,55.63
2024-05-09T12:17:50.842Z,54.30
2024-05-09T12:18:50.087Z,55.23
2024-05-09T12:19:50.041Z,53.78
2024-05-09T12:20:50.154Z,55.21
2024-05-09T12:21:50.260Z,54.98
2024-05-09T12:22:50.336Z,54.48
2024-05-09T12:23:50.442Z,54.50
2024-05-09T12:24:50.503Z,55.31
2024-05-09T12:25:50.597Z,53.66
2024-05-09T12:26:50.663Z,53.78
2024-05-09T12:27:50.835Z,52.73
2024-05-09T12:28:50.898Z,55.25
2024-05-09T12:29:50.944Z,53.84
2024-05-09T12:30:51.060Z,53.23
2024-05-09T12:31:51.171Z,55.18
2024-05-09T12:32:51.310Z,54.08
2024-05-09T12:33:51.481Z,52.71
2024-05-09T12:34:51.439Z,54.38
2024-05-09T12:35:51.551Z,53.79
2024-05-09T12:36:51.648Z,53.99
2024-05-09T12:37:51.709Z,52.53
2024-05-09T12:38:51.804Z,53.70
2024-05-09T12:39:51.920Z,54.59
2024-05-09T12:40:52.038Z,54.38
2024-05-09T12:41:52.094Z,52.93
2024-05-09T12:42:52.284Z,54.49
2024-05-09T12:43:52.258Z,52.75
2024-05-09T12:44:52.327Z,53.13
2024-05-09T12:45:52.473Z,53.74
2024-05-09T12:46:52.556Z,53.18
2024-05-09T12:47:52.709Z,52.07
2024-05-09T12:48:52.916Z,50.57
2024-05-09T12:49:52.802Z,52.50
2024-05-09T12:50:52.943Z,52.36
2024-05-09T12:51:53.013Z,52.66
2024-05-09T12:52:53.043Z,54.16
2024-05-09T12:53:53.156Z,52.96
2024-05-09T12:54:54.271Z,51.76
2024-05-09T12:55:57.103Z,53.43
2024-05-09T12:56:54.327Z,53.54
2024-05-09T12:57:53.371Z,53.69
2024-05-09T12:58:53.341Z,52.32
2024-05-09T12:59:53.328Z,54.25
2024-05-09T13:00:53.623Z,53.70